createdAt,value
2023-02-24T00:02:05.714Z,6.30
2023-02-24T00:04:35.688Z,6.30
2023-02-24T00:07:03.048Z,6.30
2023-02-24T00:09:31.629Z,6.30
2023-02-24T00:12:04.698Z,6.30
2023-02-24T00:14:34.924Z,6.30
2023-02-24T00:17:02.396Z,6.30
2023-02-24T00:19:34.318Z,6.30
2023-02-24T00:22:03.453Z,6.30
2023-02-24T00:24:30.894Z,6.30
2023-02-24T00:27:00.527Z,6.40
2023-02-24T00:29:29.483Z,6.30
2023-02-24T00:32:00.246Z,6.30
2023-02-24T00:34:31.560Z,6.30
2023-02-24T00:36:59.202Z,6.30
2023-02-24T00:39:34.610Z,6.30
2023-02-24T00:42:06.281Z,6.30
2023-02-24T00:44:45.779Z,6.30
2023-02-24T00:47:16.506Z,6.20
2023-02-24T00:49:43.846Z,6.20
2023-02-24T00:52:16.035Z,6.20
2023-02-24T00:54:44.708Z,6.10
2023-02-24T00:57:12.357Z,6.10
2023-02-24T00:59:39.557Z,6.10
2023-02-24T01:02:07.675Z,6.10
2023-02-24T01:04:37.422Z,6.10
2023-02-24T01:07:10.858Z,6.10
2023-02-24T01:09:41.430Z,6.00
2023-02-24T01:12:22.446Z,6.00
2023-02-24T01:14:51.931Z,6.00
2023-02-24T01:17:20.130Z,6.00
2023-02-24T01:19:50.143Z,6.00
2023-02-24T01:22:19.580Z,6.00
2023-02-24T01:24:47.740Z,5.90
2023-02-24T01:27:19.956Z,5.90
2023-02-24T01:29:48.226Z,5.90
2023-02-24T01:32:20.940Z,5.90
2023-02-24T01:34:51.509Z,5.80
2023-02-24T01:37:19.547Z,5.80
2023-02-24T01:39:47.831Z,5.80
2023-02-24T01:42:17.080Z,5.80
2023-02-24T01:44:47.972Z,5.80
2023-02-24T01:47:18.586Z,5.70
2023-02-24T01:49:49.185Z,5.70
2023-02-24T01:52:28.120Z,5.70
2023-02-24T01:55:28.916Z,5.70
2023-02-24T01:57:58.043Z,5.60
2023-02-24T02:00:33.702Z,5.60
2023-02-24T02:03:05.074Z,5.60
2023-02-24T02:05:31.963Z,5.60
2023-02-24T02:08:00.431Z,5.60
2023-02-24T02:10:28.898Z,5.60
2023-02-24T02:12:56.474Z,5.50
2023-02-24T02:15:24.360Z,5.50
2023-02-24T02:18:06.772Z,5.60
2023-02-24T02:20:56.900Z,5.50
2023-02-24T02:23:35.836Z,5.60
2023-02-24T02:26:53.651Z,5.50
2023-02-24T02:29:42.434Z,5.50
2023-02-24T02:32:31.481Z,5.50
2023-02-24T02:35:19.096Z,5.40
2023-02-24T02:37:56.292Z,5.50
2023-02-24T02:40:29.014Z,5.50
2023-02-24T02:43:46.421Z,5.40
2023-02-24T02:46:17.736Z,5.40
2023-02-24T02:48:53.300Z,5.40
2023-02-24T02:51:29.655Z,5.40
2023-02-24T02:54:01.841Z,5.40
2023-02-24T02:56:33.980Z,5.40
2023-02-24T02:59:01.915Z,5.30
2023-02-24T03:01:33.910Z,5.30
2023-02-24T03:04:05.992Z,5.30
2023-02-24T03:06:47.788Z,5.30
2023-02-24T03:09:22.735Z,5.20
2023-02-24T03:11:55.586Z,5.20
2023-02-24T03:14:28.380Z,5.20
2023-02-24T03:16:56.971Z,5.20
2023-02-24T03:19:32.131Z,5.20
2023-02-24T03:22:07.060Z,5.20
2023-02-24T03:24:38.822Z,5.20
2023-02-24T03:27:39.792Z,5.20
2023-02-24T03:30:40.792Z,5.20
2023-02-24T03:33:21.500Z,5.20
2023-02-24T03:35:51.506Z,5.10
2023-02-24T03:38:20.006Z,5.10
2023-02-24T03:40:47.461Z,5.10
2023-02-24T03:43:33.806Z,5.10
2023-02-24T03:46:02.485Z,5.10
2023-02-24T03:48:30.523Z,5.10
2023-02-24T03:50:59.485Z,5.10
2023-02-24T03:54:12.488Z,5.10
2023-02-24T03:57:15.235Z,5.00
2023-02-24T04:00:22.888Z,5.00
2023-02-24T04:03:06.086Z,5.00
2023-02-24T04:05:47.380Z,5.00
2023-02-24T04:08:16.944Z,5.00
2023-02-24T04:10:57.431Z,5.00
2023-02-24T04:13:47.356Z,5.00
2023-02-24T04:16:30.102Z,5.00
2023-02-24T04:19:05.457Z,5.00
2023-02-24T04:21:37.620Z,5.00
2023-02-24T04:24:11.429Z,5.00
2023-02-24T04:26:40.482Z,5.10
2023-02-24T04:29:09.793Z,5.10
2023-02-24T04:31:39.082Z,5.10
2023-02-24T04:34:09.401Z,5.10
2023-02-24T04:36:38.781Z,5.10
2023-02-24T04:39:07.604Z,5.10
2023-02-24T04:41:35.748Z,5.20
2023-02-24T04:44:02.666Z,5.20
2023-02-24T04:46:32.335Z,5.20
2023-02-24T04:49:02.095Z,5.20
2023-02-24T04:51:31.875Z,5.30
2023-02-24T04:53:58.761Z,5.40
2023-02-24T04:56:25.671Z,5.40
2023-02-24T04:58:52.551Z,5.40
2023-02-24T05:01:19.702Z,5.50
2023-02-24T05:03:47.664Z,5.50
2023-02-24T05:06:17.156Z,5.50
2023-02-24T05:08:44.173Z,5.50
2023-02-24T05:11:19.370Z,5.50
2023-02-24T05:13:46.953Z,5.60
2023-02-24T05:16:17.665Z,5.60
2023-02-24T05:18:44.875Z,5.60
2023-02-24T05:21:35.900Z,5.70
2023-02-24T05:24:07.072Z,5.70
2023-02-24T05:26:41.574Z,5.70
2023-02-24T05:29:09.367Z,5.70
2023-02-24T05:31:37.297Z,5.80
2023-02-24T05:34:07.753Z,5.80
2023-02-24T05:36:39.433Z,5.80
2023-02-24T05:39:12.252Z,5.80
2023-02-24T05:41:42.087Z,5.80
2023-02-24T05:44:13.229Z,5.80
2023-02-24T05:46:42.905Z,5.80
2023-02-24T05:49:16.378Z,5.80
2023-02-24T05:51:54.359Z,5.80
2023-02-24T05:54:25.755Z,5.80
2023-02-24T05:56:52.657Z,5.80
2023-02-24T05:59:21.554Z,5.80
2023-02-24T06:01:53.184Z,5.80
2023-02-24T06:04:39.227Z,5.80
2023-02-24T06:07:24.966Z,5.80
2023-02-24T06:09:57.750Z,5.80
2023-02-24T06:12:28.164Z,5.80
2023-02-24T06:14:55.647Z,5.80
2023-02-24T06:17:23.019Z,5.80
2023-02-24T06:19:52.662Z,5.80
2023-02-24T06:22:22.843Z,5.80
2023-02-24T06:24:50.532Z,5.80
2023-02-24T06:27:19.636Z,5.80
2023-02-24T06:29:50.452Z,5.80
2023-02-24T06:32:19.420Z,5.80
2023-02-24T06:34:46.318Z,5.80
2023-02-24T06:37:14.977Z,5.80
2023-02-24T06:39:43.289Z,5.80
2023-02-24T06:42:11.952Z,5.90
2023-02-24T06:44:40.973Z,5.80
2023-02-24T06:47:10.991Z,5.90
2023-02-24T06:49:37.919Z,5.90
2023-02-24T06:52:05.926Z,5.90
2023-02-24T06:54:35.943Z,5.90
2023-02-24T06:57:03.751Z,5.90
2023-02-24T06:59:32.257Z,5.90
2023-02-24T07:02:01.985Z,5.90
2023-02-24T07:04:29.637Z,5.90
2023-02-24T07:07:03.507Z,5.90
2023-02-24T07:09:32.109Z,5.90
2023-02-24T07:12:02.658Z,5.90
2023-02-24T07:14:32.914Z,5.90
2023-02-24T07:17:00.348Z,6.00
2023-02-24T07:19:32.373Z,6.00
2023-02-24T07:22:02.140Z,6.00
2023-02-24T07:24:39.162Z,6.00
2023-02-24T07:27:21.686Z,6.10
2023-02-24T07:29:51.835Z,6.10
2023-02-24T07:32:22.366Z,6.10
2023-02-24T07:34:49.277Z,6.10
2023-02-24T07:37:16.795Z,6.10
2023-02-24T07:39:43.838Z,6.10
2023-02-24T07:42:15.067Z,6.10
2023-02-24T07:44:46.698Z,6.10
2023-02-24T07:47:15.894Z,6.10
2023-02-24T07:49:43.169Z,6.20
2023-02-24T07:52:11.605Z,6.20
2023-02-24T07:54:39.223Z,6.20
2023-02-24T07:57:06.604Z,6.30
2023-02-24T07:59:38.093Z,6.30
2023-02-24T08:02:07.760Z,6.30
2023-02-24T08:04:36.388Z,6.40
2023-02-24T08:07:04.302Z,6.40
2023-02-24T08:09:45.903Z,6.40
2023-02-24T08:12:18.041Z,6.40
2023-02-24T08:14:50.762Z,6.40
2023-02-24T08:17:23.747Z,6.40
2023-02-24T08:20:12.314Z,6.40
2023-02-24T08:22:43.932Z,6.40
2023-02-24T08:25:18.495Z,6.40
2023-02-24T08:28:06.345Z,6.40
2023-02-24T08:30:38.925Z,6.40
2023-02-24T08:33:11.927Z,6.40
2023-02-24T08:35:44.461Z,6.40
2023-02-24T08:38:15.843Z,6.40
2023-02-24T08:40:52.025Z,6.50
2023-02-24T08:43:30.963Z,6.50
2023-02-24T08:46:21.303Z,6.50
2023-02-24T08:48:57.509Z,6.60
2023-02-24T08:51:28.811Z,6.60
2023-02-24T08:53:58.824Z,6.60
2023-02-24T08:56:34.610Z,6.60
2023-02-24T08:59:06.893Z,6.60
2023-02-24T09:01:38.458Z,6.70
2023-02-24T09:04:13.376Z,6.70
2023-02-24T09:06:45.293Z,6.70
2023-02-24T09:09:18.820Z,6.60
2023-02-24T09:11:55.993Z,6.70
2023-02-24T09:14:28.901Z,6.70
2023-02-24T09:17:06.296Z,6.70
2023-02-24T09:22:31.419Z,6.70
2023-02-24T09:25:18.722Z,6.70
2023-02-24T09:27:52.522Z,6.80
2023-02-24T09:30:37.175Z,6.80
2023-02-24T09:33:09.023Z,6.90
2023-02-24T09:35:37.038Z,6.90
2023-02-24T09:38:07.667Z,6.90
2023-02-24T09:40:40.137Z,7.00
2023-02-24T09:43:17.626Z,7.10
2023-02-24T09:46:00.900Z,7.10
2023-02-24T09:48:43.696Z,7.20
2023-02-24T09:51:21.722Z,7.20
2023-02-24T09:53:53.781Z,7.20
2023-02-24T09:56:37.045Z,7.30
2023-02-24T09:59:27.316Z,7.20
2023-02-24T10:02:15.622Z,7.20
2023-02-24T10:05:07.137Z,7.30
2023-02-24T10:07:39.634Z,7.30
2023-02-24T10:10:19.809Z,7.30
2023-02-24T10:12:52.714Z,7.30
2023-02-24T10:15:47.396Z,7.30
2023-02-24T10:18:27.306Z,7.30
2023-02-24T10:21:20.085Z,7.30
2023-02-24T10:24:06.086Z,7.30
2023-02-24T10:27:00.064Z,7.30
2023-02-24T10:29:43.227Z,7.30
2023-02-24T10:32:47.115Z,7.30
2023-02-24T10:35:17.067Z,7.30
2023-02-24T10:37:44.583Z,7.30
2023-02-24T10:40:17.458Z,7.30
2023-02-24T10:42:48.880Z,7.40
2023-02-24T10:45:26.889Z,7.40
2023-02-24T10:47:59.389Z,7.30
2023-02-24T10:50:32.752Z,7.40
2023-02-24T10:53:26.731Z,7.40
2023-02-24T10:56:15.262Z,7.40
2023-02-24T10:58:52.651Z,7.50
2023-02-24T11:01:55.664Z,7.50
2023-02-24T11:04:32.954Z,7.50
2023-02-24T11:07:12.018Z,7.50
2023-02-24T11:09:52.665Z,7.60
2023-02-24T11:12:44.138Z,7.60
2023-02-24T11:15:40.620Z,7.60
2023-02-24T11:18:21.042Z,7.60
2023-02-24T11:20:52.441Z,7.60
2023-02-24T11:23:27.956Z,7.70
2023-02-24T11:26:00.814Z,7.70
2023-02-24T11:28:43.368Z,7.70
2023-02-24T11:31:34.926Z,7.80
2023-02-24T11:34:24.869Z,7.80
2023-02-24T11:37:16.259Z,7.80
2023-02-24T11:39:50.353Z,7.90
2023-02-24T11:42:26.435Z,7.90
2023-02-24T11:45:16.073Z,8.00
2023-02-24T11:47:48.779Z,8.00
2023-02-24T11:50:15.705Z,8.10
2023-02-24T11:52:46.897Z,8.10
2023-02-24T11:55:42.996Z,8.20
2023-02-24T11:58:28.096Z,8.20
2023-02-24T12:01:31.102Z,8.20
2023-02-24T12:04:30.358Z,8.30
2023-02-24T12:07:30.967Z,8.30
2023-02-24T12:10:16.013Z,8.30
2023-02-24T12:12:52.771Z,8.30
2023-02-24T12:15:28.469Z,8.30
2023-02-24T12:18:34.606Z,8.40
2023-02-24T12:21:09.111Z,8.50
2023-02-24T12:23:39.680Z,8.60
2023-02-24T12:26:28.751Z,8.70
2023-02-24T12:29:18.889Z,8.80
2023-02-24T12:32:30.712Z,9.00
2023-02-24T12:35:57.594Z,9.20
2023-02-24T12:38:44.129Z,9.30
2023-02-24T12:41:34.209Z,9.40
2023-02-24T12:44:01.738Z,9.50
2023-02-24T12:46:35.800Z,9.60
2023-02-24T12:49:10.430Z,9.80
2023-02-24T12:52:03.536Z,10.00
2023-02-24T12:54:36.700Z,10.10
2023-02-24T12:57:28.266Z,10.30
2023-02-24T12:59:58.056Z,10.40
2023-02-24T13:02:36.519Z,10.50
2023-02-24T13:05:06.436Z,10.50
2023-02-24T13:07:39.909Z,10.50
2023-02-24T13:10:22.052Z,10.40
2023-02-24T13:13:10.421Z,10.40
2023-02-24T13:15:37.321Z,10.40
2023-02-24T13:18:04.399Z,10.40
2023-02-24T13:20:38.016Z,10.50
2023-02-24T13:23:21.082Z,10.50
2023-02-24T13:25:53.611Z,10.80
2023-02-24T13:28:35.944Z,11.40
2023-02-24T13:31:02.677Z,12.10
2023-02-24T13:33:32.678Z,12.70
2023-02-24T13:36:26.064Z,12.90
2023-02-24T13:39:07.425Z,12.70
2023-02-24T13:41:40.974Z,12.60
2023-02-24T13:44:27.451Z,12.70
2023-02-24T13:47:12.934Z,12.70
2023-02-24T13:50:02.808Z,12.50
2023-02-24T13:52:48.322Z,12.30
2023-02-24T13:55:53.535Z,11.70
2023-02-24T13:58:32.063Z,11.30
2023-02-24T14:01:14.671Z,10.80
2023-02-24T14:03:44.566Z,10.50
2023-02-24T14:06:23.253Z,10.30
2023-02-24T14:08:54.311Z,10.20
2023-02-24T14:11:26.834Z,10.10
2023-02-24T14:13:56.361Z,10.20
2023-02-24T14:16:35.814Z,10.50
2023-02-24T14:19:03.616Z,11.00
2023-02-24T14:21:32.916Z,11.60
2023-02-24T14:24:03.005Z,12.00
2023-02-24T14:26:36.443Z,12.00
2023-02-24T14:29:03.778Z,11.90
2023-02-24T14:31:31.233Z,11.70
2023-02-24T14:34:01.619Z,11.60
2023-02-24T14:36:33.174Z,11.40
2023-02-24T14:39:17.794Z,11.30
2023-02-24T14:41:46.273Z,11.30
2023-02-24T14:44:23.611Z,11.30
2023-02-24T14:46:53.295Z,11.30
2023-02-24T14:49:25.556Z,11.20
2023-02-24T14:52:05.083Z,11.20
2023-02-24T14:54:48.968Z,11.30
2023-02-24T14:57:24.805Z,11.70
2023-02-24T14:59:57.581Z,12.00
2023-02-24T15:02:32.837Z,12.10
2023-02-24T15:05:00.360Z,12.00
2023-02-24T15:07:32.043Z,12.00
2023-02-24T15:10:00.808Z,11.90
2023-02-24T15:12:34.583Z,11.80
2023-02-24T15:15:23.442Z,11.80
2023-02-24T15:17:56.732Z,11.60
2023-02-24T15:20:37.684Z,11.50
2023-02-24T15:23:05.419Z,11.50
2023-02-24T15:25:44.697Z,11.40
2023-02-24T15:28:27.040Z,11.30
2023-02-24T15:31:01.002Z,11.20
2023-02-24T15:33:34.137Z,11.20
2023-02-24T15:36:05.369Z,11.30
2023-02-24T15:38:38.314Z,11.50
2023-02-24T15:41:07.925Z,11.70
2023-02-24T15:43:37.301Z,11.90
2023-02-24T15:46:33.209Z,12.10
2023-02-24T15:49:04.552Z,12.20
2023-02-24T15:51:39.922Z,12.30
2023-02-24T15:54:11.000Z,12.30
2023-02-24T15:56:37.875Z,12.20
2023-02-24T15:59:06.017Z,12.10
2023-02-24T16:01:33.617Z,12.10
2023-02-24T16:04:01.548Z,12.00
2023-02-24T16:06:28.969Z,11.90
2023-02-24T16:08:57.484Z,11.70
2023-02-24T16:11:28.790Z,11.60
2023-02-24T16:13:58.188Z,11.40
2023-02-24T16:16:26.616Z,11.30
2023-02-24T16:18:54.051Z,11.20
2023-02-24T16:21:21.147Z,11.00
2023-02-24T16:23:48.646Z,10.80
2023-02-24T16:26:20.867Z,10.70
2023-02-24T16:28:55.912Z,10.50
2023-02-24T16:31:24.679Z,10.40
2023-02-24T16:33:55.352Z,10.30
2023-02-24T16:36:25.258Z,10.20
2023-02-24T16:38:52.522Z,10.20
2023-02-24T16:41:19.666Z,10.10
2023-02-24T16:43:46.621Z,10.00
2023-02-24T16:46:16.787Z,10.00
2023-02-24T16:48:46.817Z,9.90
2023-02-24T16:51:14.776Z,9.90
2023-02-24T16:53:41.692Z,9.80
2023-02-24T16:56:09.371Z,9.70
2023-02-24T16:58:36.316Z,9.60
2023-02-24T17:01:05.274Z,9.60
2023-02-24T17:03:37.419Z,9.50
2023-02-24T17:06:04.438Z,9.40
2023-02-24T17:08:31.765Z,9.40
2023-02-24T17:10:58.725Z,9.30
2023-02-24T17:13:25.627Z,9.30
2023-02-24T17:15:55.372Z,9.20
2023-02-24T17:18:23.534Z,9.10
2023-02-24T17:20:50.479Z,9.10
2023-02-24T17:23:17.395Z,9.10
2023-02-24T17:25:44.959Z,9.00
2023-02-24T17:28:11.893Z,9.00
2023-02-24T17:30:39.611Z,9.00
2023-02-24T17:33:07.340Z,8.90
2023-02-24T17:35:34.295Z,8.90
2023-02-24T17:38:01.253Z,8.90
2023-02-24T17:40:28.137Z,8.90
2023-02-24T17:42:55.100Z,8.90
2023-02-24T17:45:22.077Z,8.90
2023-02-24T17:47:48.911Z,8.80
2023-02-24T17:50:16.664Z,8.80
2023-02-24T17:52:43.714Z,8.80
2023-02-24T17:55:10.903Z,8.70
2023-02-24T17:57:39.599Z,8.70
2023-02-24T18:00:08.189Z,8.70
2023-02-24T18:02:41.095Z,8.70
2023-02-24T18:05:09.095Z,8.70
2023-02-24T18:07:36.570Z,8.70
2023-02-24T18:10:03.846Z,8.60
2023-02-24T18:12:31.345Z,8.60
2023-02-24T18:15:07.698Z,8.50
2023-02-24T18:17:35.742Z,8.40
2023-02-24T18:20:03.465Z,8.40
2023-02-24T18:22:30.335Z,8.30
2023-02-24T18:24:57.505Z,8.30
2023-02-24T18:27:24.385Z,8.20
2023-02-24T18:29:51.228Z,8.20
2023-02-24T18:32:18.231Z,8.10
2023-02-24T18:34:45.256Z,8.10
2023-02-24T18:37:12.314Z,8.10
2023-02-24T18:39:39.164Z,8.00
2023-02-24T18:42:06.133Z,8.00
2023-02-24T18:44:32.966Z,8.00
2023-02-24T18:46:59.913Z,8.00
2023-02-24T18:49:26.926Z,7.90
2023-02-24T18:51:53.855Z,7.90
2023-02-24T18:54:20.806Z,8.00
2023-02-24T18:56:47.780Z,7.90
2023-02-24T18:59:14.635Z,7.90
2023-02-24T19:01:41.499Z,7.90
2023-02-24T19:04:08.582Z,7.90
2023-02-24T19:06:36.372Z,7.90
2023-02-24T19:09:12.094Z,7.90
2023-02-24T19:11:40.865Z,7.90
2023-02-24T19:14:09.430Z,7.90
2023-02-24T19:16:37.897Z,7.80
2023-02-24T19:19:05.230Z,7.80
2023-02-24T19:21:33.524Z,7.80
2023-02-24T19:24:03.503Z,7.80
2023-02-24T19:26:30.811Z,7.80
2023-02-24T19:28:58.812Z,7.80
2023-02-24T19:31:30.647Z,7.80
2023-02-24T19:34:00.762Z,7.80
2023-02-24T19:36:29.112Z,7.80
2023-02-24T19:38:56.229Z,7.80
2023-02-24T19:41:23.456Z,7.80
2023-02-24T19:43:51.478Z,7.80
2023-02-24T19:46:18.893Z,7.80
2023-02-24T19:48:46.037Z,7.80
2023-02-24T19:51:22.455Z,7.80
2023-02-24T19:53:53.446Z,7.80
2023-02-24T19:56:28.978Z,7.80
2023-02-24T19:58:57.317Z,7.80
2023-02-24T20:01:25.512Z,7.90
2023-02-24T20:03:59.531Z,7.90
2023-02-24T20:06:36.025Z,7.90
2023-02-24T20:09:06.586Z,8.00
2023-02-24T20:11:38.773Z,8.00
2023-02-24T20:14:06.135Z,8.00
2023-02-24T20:16:34.690Z,8.00
2023-02-24T20:19:02.688Z,8.10
2023-02-24T20:21:31.045Z,8.10
2023-02-24T20:24:02.562Z,8.10
2023-02-24T20:26:30.348Z,8.10
2023-02-24T20:28:58.687Z,8.10
2023-02-24T20:31:25.839Z,8.10
2023-02-24T20:33:53.140Z,8.10
2023-02-24T20:36:26.869Z,8.20
2023-02-24T20:38:59.202Z,8.20
2023-02-24T20:41:27.168Z,8.20
2023-02-24T20:43:55.172Z,8.20
2023-02-24T20:46:28.728Z,8.20
2023-02-24T20:49:01.224Z,8.20
2023-02-24T20:51:30.121Z,8.20
2023-02-24T20:53:58.640Z,8.20
2023-02-24T20:56:32.899Z,8.20
2023-02-24T20:59:02.547Z,8.20
2023-02-24T21:01:31.113Z,8.20
2023-02-24T21:03:58.538Z,8.20
2023-02-24T21:06:26.053Z,8.20
2023-02-24T21:08:53.469Z,8.20
2023-02-24T21:11:21.570Z,8.20
2023-02-24T21:13:52.291Z,8.20
2023-02-24T21:16:20.538Z,8.30
2023-02-24T21:18:49.562Z,8.20
2023-02-24T21:21:17.178Z,8.20
2023-02-24T21:23:44.110Z,8.20
2023-02-24T21:26:12.086Z,8.20
2023-02-24T21:28:40.354Z,8.10
2023-02-24T21:31:13.179Z,8.10
2023-02-24T21:33:40.632Z,8.10
2023-02-24T21:36:11.281Z,8.00
2023-02-24T21:38:38.368Z,8.00
2023-02-24T21:41:08.183Z,7.90
2023-02-24T21:43:35.406Z,7.90
2023-02-24T21:46:08.999Z,7.80
2023-02-24T21:48:37.047Z,7.70
2023-02-24T21:51:06.451Z,7.70
2023-02-24T21:53:35.669Z,7.70
2023-02-24T21:56:06.534Z,7.70
2023-02-24T21:58:33.599Z,7.60
2023-02-24T22:01:00.410Z,7.60
2023-02-24T22:03:28.096Z,7.60
2023-02-24T22:05:55.113Z,7.60
2023-02-24T22:08:22.127Z,7.60
2023-02-24T22:10:58.712Z,7.50
2023-02-24T22:13:26.220Z,7.40
2023-02-24T22:15:53.342Z,7.40
2023-02-24T22:18:21.257Z,7.40
2023-02-24T22:20:48.202Z,7.30
2023-02-24T22:23:15.156Z,7.30
2023-02-24T22:25:42.011Z,7.20
2023-02-24T22:28:08.907Z,7.20
2023-02-24T22:30:35.885Z,7.20
2023-02-24T22:33:02.803Z,7.10
2023-02-24T22:35:29.686Z,7.10
2023-02-24T22:37:56.582Z,7.10
2023-02-24T22:40:23.458Z,7.10
2023-02-24T22:42:50.291Z,7.10
2023-02-24T22:45:17.156Z,7.10
2023-02-24T22:47:44.064Z,7.10
2023-02-24T22:50:11.414Z,7.10
2023-02-24T22:52:38.403Z,7.10
2023-02-24T22:55:05.573Z,7.10
2023-02-24T22:57:34.041Z,7.00
2023-02-24T23:00:00.936Z,7.00
2023-02-24T23:02:27.858Z,6.90
2023-02-24T23:04:54.711Z,6.90
2023-02-24T23:07:21.624Z,6.90
2023-02-24T23:09:52.952Z,6.90
2023-02-24T23:12:22.128Z,6.90
2023-02-24T23:14:49.213Z,6.80
2023-02-24T23:17:16.058Z,6.80
2023-02-24T23:19:42.889Z,6.80
2023-02-24T23:22:09.765Z,6.80
2023-02-24T23:24:36.594Z,6.80
2023-02-24T23:27:03.760Z,6.80
2023-02-24T23:29:30.813Z,6.70
2023-02-24T23:31:58.362Z,6.70
2023-02-24T23:34:26.518Z,6.70
2023-02-24T23:36:53.411Z,6.70
2023-02-24T23:39:23.624Z,6.60
2023-02-24T23:41:56.699Z,6.60
2023-02-24T23:44:23.933Z,6.60
2023-02-24T23:46:50.863Z,6.50
2023-02-24T23:49:17.708Z,6.50
2023-02-24T23:51:48.974Z,6.50
2023-02-24T23:54:18.111Z,6.60
2023-02-24T23:56:46.434Z,6.60
2023-02-24T23:59:13.696Z,6.60
